createdAt,value
2023-02-07T00:01:26.236Z,10.23
2023-02-07T00:03:31.362Z,9.73
2023-02-07T00:05:40.731Z,10.13
2023-02-07T00:07:45.556Z,10.65
2023-02-07T00:09:51.068Z,8.23
2023-02-07T00:11:56.087Z,10.65
2023-02-07T00:14:02.715Z,10.15
2023-02-07T00:16:12.295Z,9.95
2023-02-07T00:18:17.320Z,10.38
2023-02-07T00:20:22.444Z,9.60
2023-02-07T00:22:31.367Z,8.95
2023-02-07T00:24:36.785Z,8.07
2023-02-07T00:26:41.834Z,8.18
2023-02-07T00:28:48.249Z,7.90
2023-02-07T00:30:53.661Z,8.30
2023-02-07T00:32:58.727Z,8.88
2023-02-07T00:35:04.225Z,7.95
2023-02-07T00:37:10.011Z,9.02
2023-02-07T00:39:20.468Z,8.15
2023-02-07T00:41:25.457Z,8.52
2023-02-07T00:43:33.083Z,9.55
2023-02-07T00:45:38.882Z,7.90
2023-02-07T00:47:44.166Z,9.50
2023-02-07T00:49:49.215Z,8.52
2023-02-07T00:51:55.370Z,7.68
2023-02-07T00:54:00.986Z,8.95
2023-02-07T00:56:09.420Z,7.97
2023-02-07T00:58:16.310Z,7.85
2023-02-07T01:00:21.760Z,8.43
2023-02-07T01:02:26.701Z,9.50
2023-02-07T01:04:31.719Z,8.15
2023-02-07T01:06:37.370Z,11.23
2023-02-07T01:08:42.667Z,7.22
2023-02-07T01:10:48.694Z,7.65
2023-02-07T01:12:57.643Z,7.35
2023-02-07T01:15:02.694Z,7.97
2023-02-07T01:17:07.611Z,8.75
2023-02-07T01:19:15.061Z,8.40
2023-02-07T01:21:21.634Z,8.48
2023-02-07T01:23:27.855Z,10.00
2023-02-07T01:25:32.990Z,7.28
2023-02-07T01:27:38.834Z,8.80
2023-02-07T01:29:48.600Z,8.70
2023-02-07T01:31:55.005Z,8.82
2023-02-07T01:34:04.169Z,9.27
2023-02-07T01:36:11.625Z,7.18
2023-02-07T01:38:16.687Z,9.02
2023-02-07T01:40:21.872Z,7.00
2023-02-07T01:42:30.130Z,6.68
2023-02-07T01:45:06.889Z,8.32
2023-02-07T01:47:18.476Z,7.90
2023-02-07T01:49:27.620Z,6.88
2023-02-07T01:51:36.960Z,8.45
2023-02-07T01:53:43.864Z,9.02
2023-02-07T01:55:51.491Z,8.55
2023-02-07T01:57:59.500Z,8.05
2023-02-07T02:00:11.954Z,8.57
2023-02-07T02:02:20.500Z,8.80
2023-02-07T02:04:26.017Z,8.30
2023-02-07T02:06:33.905Z,8.18
2023-02-07T02:08:40.364Z,7.50
2023-02-07T02:11:08.335Z,8.15
2023-02-07T02:13:24.262Z,8.23
2023-02-07T02:15:43.488Z,8.43
2023-02-07T02:18:00.949Z,7.65
2023-02-07T02:20:47.786Z,8.73
2023-02-07T02:23:30.407Z,8.77
2023-02-07T02:26:01.767Z,6.97
2023-02-07T02:28:29.869Z,10.32
2023-02-07T02:30:59.640Z,8.32
2023-02-07T02:33:37.204Z,7.95
2023-02-07T02:35:53.704Z,9.63
2023-02-07T02:38:06.989Z,6.60
2023-02-07T02:40:17.036Z,8.90
2023-02-07T02:42:30.850Z,7.88
2023-02-07T02:44:41.137Z,9.07
2023-02-07T02:46:48.736Z,8.55
2023-02-07T02:48:55.740Z,6.97
2023-02-07T02:51:04.449Z,8.27
2023-02-07T02:53:09.486Z,7.20
2023-02-07T02:55:15.178Z,7.65
2023-02-07T02:57:38.205Z,7.72
2023-02-07T03:00:10.106Z,7.95
2023-02-07T03:02:30.086Z,7.30
2023-02-07T03:05:00.565Z,8.07
2023-02-07T03:07:26.430Z,8.23
2023-02-07T03:09:41.146Z,8.43
2023-02-07T03:11:58.018Z,7.85
2023-02-07T03:14:10.321Z,7.30
2023-02-07T03:16:21.502Z,8.73
2023-02-07T03:18:32.611Z,8.00
2023-02-07T03:20:41.848Z,8.10
2023-02-07T03:22:50.507Z,9.38
2023-02-07T03:25:01.920Z,8.32
2023-02-07T03:27:15.432Z,7.80
2023-02-07T03:29:22.790Z,8.27
2023-02-07T03:31:30.069Z,8.20
2023-02-07T03:33:36.461Z,8.23
2023-02-07T03:35:45.487Z,8.57
2023-02-07T03:37:56.104Z,8.55
2023-02-07T03:40:01.006Z,8.75
2023-02-07T03:42:10.220Z,8.63
2023-02-07T03:44:18.175Z,9.07
2023-02-07T03:46:23.217Z,7.95
2023-02-07T03:48:28.581Z,9.45
2023-02-07T03:50:37.358Z,7.57
2023-02-07T03:52:42.391Z,8.40
2023-02-07T03:54:49.882Z,9.52
2023-02-07T03:56:54.747Z,8.95
2023-02-07T03:59:01.044Z,9.15
2023-02-07T04:01:06.294Z,9.40
2023-02-07T04:03:11.190Z,9.82
2023-02-07T04:05:16.214Z,8.98
2023-02-07T04:07:21.244Z,10.07
2023-02-07T04:09:26.384Z,10.00
2023-02-07T04:11:35.232Z,11.48
2023-02-07T04:13:40.446Z,10.88
2023-02-07T04:15:45.392Z,10.38
2023-02-07T04:17:51.104Z,12.27
2023-02-07T04:19:56.445Z,10.90
2023-02-07T04:22:04.186Z,11.68
2023-02-07T04:24:09.959Z,13.25
2023-02-07T04:26:16.148Z,12.65
2023-02-07T04:28:23.778Z,12.65
2023-02-07T04:30:28.694Z,14.80
2023-02-07T04:32:33.852Z,13.88
2023-02-07T04:34:41.829Z,11.90
2023-02-07T04:36:46.785Z,12.32
2023-02-07T04:38:51.657Z,13.00
2023-02-07T04:41:00.589Z,12.65
2023-02-07T04:43:06.254Z,13.02
2023-02-07T04:45:16.282Z,14.38
2023-02-07T04:47:21.364Z,13.85
2023-02-07T04:49:26.345Z,13.48
2023-02-07T04:51:32.820Z,11.98
2023-02-07T04:53:38.213Z,12.93
2023-02-07T04:55:43.042Z,13.95
2023-02-07T04:57:49.828Z,15.05
2023-02-07T04:59:54.756Z,14.27
2023-02-07T05:02:02.333Z,13.52
2023-02-07T05:04:07.732Z,13.18
2023-02-07T05:06:14.667Z,13.05
2023-02-07T05:08:19.752Z,12.43
2023-02-07T05:10:24.835Z,12.88
2023-02-07T05:12:29.741Z,14.77
2023-02-07T05:14:41.998Z,14.75
2023-02-07T05:16:47.054Z,13.82
2023-02-07T05:18:54.623Z,13.15
2023-02-07T05:21:02.665Z,14.45
2023-02-07T05:23:08.413Z,13.45
2023-02-07T05:25:16.179Z,13.98
2023-02-07T05:27:21.045Z,14.43
2023-02-07T05:29:25.954Z,11.32
2023-02-07T05:31:45.416Z,15.32
2023-02-07T05:33:52.318Z,15.68
2023-02-07T05:36:00.098Z,13.95
2023-02-07T05:38:06.537Z,15.30
2023-02-07T05:40:14.134Z,14.68
2023-02-07T05:42:19.324Z,15.27
2023-02-07T05:44:24.362Z,14.18
2023-02-07T05:46:29.243Z,13.07
2023-02-07T05:48:35.227Z,14.07
2023-02-07T05:50:42.640Z,11.43
2023-02-07T05:52:51.657Z,12.02
2023-02-07T05:54:56.776Z,12.25
2023-02-07T05:57:02.316Z,13.25
2023-02-07T05:59:07.046Z,13.50
2023-02-07T06:01:12.638Z,13.00
2023-02-07T06:03:17.648Z,14.65
2023-02-07T06:05:23.387Z,13.55
2023-02-07T06:07:28.564Z,13.68
2023-02-07T06:09:39.087Z,12.43
2023-02-07T06:11:45.520Z,14.30
2023-02-07T06:13:52.187Z,14.40
2023-02-07T06:15:59.688Z,13.95
2023-02-07T06:18:07.573Z,16.10
2023-02-07T06:20:14.007Z,14.98
2023-02-07T06:22:19.239Z,14.25
2023-02-07T06:24:24.489Z,16.17
2023-02-07T06:26:32.037Z,14.95
2023-02-07T06:28:36.942Z,13.32
2023-02-07T06:30:42.065Z,15.20
2023-02-07T06:32:47.926Z,13.20
2023-02-07T06:34:52.815Z,16.15
2023-02-07T06:36:57.678Z,14.77
2023-02-07T06:39:03.757Z,15.13
2023-02-07T06:41:12.587Z,13.60
2023-02-07T06:43:20.038Z,14.70
2023-02-07T06:45:25.066Z,15.57
2023-02-07T06:47:30.059Z,13.75
2023-02-07T06:49:35.212Z,14.13
2023-02-07T06:51:40.303Z,13.40
2023-02-07T06:53:45.514Z,14.55
2023-02-07T06:55:52.140Z,15.30
2023-02-07T06:57:58.294Z,16.23
2023-02-07T07:00:06.408Z,14.38
2023-02-07T07:02:14.390Z,15.07
2023-02-07T07:04:19.288Z,16.17
2023-02-07T07:06:24.244Z,17.83
2023-02-07T07:08:30.028Z,18.95
2023-02-07T07:10:35.131Z,19.25
2023-02-07T07:12:40.421Z,19.13
2023-02-07T07:14:48.391Z,20.42
2023-02-07T07:16:56.881Z,20.42
2023-02-07T07:19:02.479Z,18.58
2023-02-07T07:21:07.956Z,20.30
2023-02-07T07:23:12.998Z,18.92
2023-02-07T07:25:20.050Z,19.08
2023-02-07T07:27:24.851Z,20.58
2023-02-07T07:29:29.683Z,20.90
2023-02-07T07:31:36.835Z,19.60
2023-02-07T07:33:44.492Z,20.20
2023-02-07T07:35:49.903Z,19.38
2023-02-07T07:37:54.775Z,21.63
2023-02-07T07:40:00.430Z,19.92
2023-02-07T07:42:05.514Z,19.77
2023-02-07T07:44:10.445Z,22.67
2023-02-07T07:46:16.667Z,20.58
2023-02-07T07:48:21.897Z,22.27
2023-02-07T07:50:29.513Z,18.85
2023-02-07T07:52:35.270Z,20.40
2023-02-07T07:54:40.486Z,21.48
2023-02-07T07:56:45.557Z,20.60
2023-02-07T07:58:51.984Z,17.70
2023-02-07T08:00:56.865Z,20.50
2023-02-07T08:03:02.324Z,20.08
2023-02-07T08:05:07.765Z,19.20
2023-02-07T08:07:18.542Z,22.40
2023-02-07T08:09:24.375Z,19.95
2023-02-07T08:11:29.482Z,21.25
2023-02-07T08:13:36.544Z,21.33
2023-02-07T08:15:41.988Z,20.13
2023-02-07T08:17:47.281Z,20.38
2023-02-07T08:19:52.151Z,18.70
2023-02-07T08:21:57.333Z,19.45
2023-02-07T08:24:05.036Z,22.05
2023-02-07T08:26:10.249Z,19.55
2023-02-07T08:28:15.753Z,17.10
2023-02-07T08:30:22.055Z,18.88
2023-02-07T08:32:28.998Z,20.92
2023-02-07T08:34:37.785Z,15.95
2023-02-07T08:38:53.749Z,17.42
2023-02-07T08:41:01.567Z,23.50
2023-02-07T08:43:12.477Z,20.58
2023-02-07T08:45:21.268Z,19.33
2023-02-07T08:47:26.254Z,18.17
2023-02-07T08:49:31.617Z,21.45
2023-02-07T08:51:36.521Z,19.77
2023-02-07T08:53:41.754Z,21.08
2023-02-07T08:55:48.188Z,20.23
2023-02-07T08:57:55.855Z,21.40
2023-02-07T09:00:00.759Z,22.00
2023-02-07T09:02:06.190Z,22.27
2023-02-07T09:04:11.830Z,19.23
2023-02-07T09:06:17.079Z,19.33
2023-02-07T09:08:22.002Z,23.00
2023-02-07T09:10:27.696Z,23.73
2023-02-07T09:12:32.666Z,22.27
2023-02-07T09:14:41.003Z,23.00
2023-02-07T09:16:46.767Z,21.58
2023-02-07T09:18:52.004Z,23.20
2023-02-07T09:20:57.617Z,23.00
2023-02-07T09:23:15.312Z,22.23
2023-02-07T09:25:21.614Z,21.05
2023-02-07T09:27:29.832Z,23.13
2023-02-07T09:29:35.095Z,24.65
2023-02-07T09:31:47.673Z,25.95
2023-02-07T09:33:52.813Z,24.65
2023-02-07T09:35:57.661Z,21.77
2023-02-07T09:38:02.488Z,23.60
2023-02-07T09:40:09.353Z,26.30
2023-02-07T09:42:29.271Z,25.30
2023-02-07T09:44:50.975Z,23.23
2023-02-07T09:47:05.549Z,24.13
2023-02-07T09:49:20.156Z,21.85
2023-02-07T09:51:28.361Z,23.75
2023-02-07T09:53:43.525Z,24.95
2023-02-07T09:55:55.528Z,23.92
2023-02-07T09:58:04.892Z,22.65
2023-02-07T10:00:22.393Z,23.88
2023-02-07T10:02:41.990Z,25.27
2023-02-07T10:04:51.433Z,23.50
2023-02-07T10:06:58.882Z,23.85
2023-02-07T10:09:04.834Z,22.80
2023-02-07T10:11:20.117Z,23.02
2023-02-07T10:13:42.162Z,21.85
2023-02-07T10:16:01.134Z,22.27
2023-02-07T10:18:30.160Z,21.60
2023-02-07T10:20:41.473Z,23.48
2023-02-07T10:22:53.981Z,23.73
2023-02-07T10:25:30.756Z,25.38
2023-02-07T10:27:46.862Z,21.67
2023-02-07T10:30:00.169Z,24.05
2023-02-07T10:32:15.644Z,22.75
2023-02-07T10:34:26.624Z,24.50
2023-02-07T10:36:37.342Z,25.20
2023-02-07T10:38:56.717Z,23.33
2023-02-07T10:41:09.784Z,21.77
2023-02-07T10:43:23.636Z,24.17
2023-02-07T10:45:28.682Z,24.00
2023-02-07T10:47:38.102Z,26.15
2023-02-07T10:49:49.593Z,25.10
2023-02-07T10:51:56.645Z,23.05
2023-02-07T10:54:11.914Z,24.27
2023-02-07T10:56:26.080Z,23.67
2023-02-07T10:58:42.102Z,22.80
2023-02-07T11:00:51.885Z,23.17
2023-02-07T11:02:57.872Z,23.25
2023-02-07T11:05:08.737Z,22.85
2023-02-07T11:07:21.580Z,22.58
2023-02-07T11:09:27.670Z,23.48
2023-02-07T11:11:41.773Z,23.33
2023-02-07T11:13:55.666Z,21.42
2023-02-07T11:16:06.225Z,22.50
2023-02-07T11:18:11.482Z,22.38
2023-02-07T11:20:26.658Z,23.38
2023-02-07T11:22:33.804Z,22.27
2023-02-07T11:24:42.146Z,19.88
2023-02-07T11:27:00.420Z,23.58
2023-02-07T11:29:16.570Z,20.50
2023-02-07T11:31:26.863Z,22.00
2023-02-07T11:33:37.907Z,23.63
2023-02-07T11:36:07.634Z,22.10
2023-02-07T11:38:17.768Z,20.30
2023-02-07T11:40:29.875Z,21.83
2023-02-07T11:42:36.254Z,20.25
2023-02-07T11:44:45.569Z,21.90
2023-02-07T11:46:52.053Z,20.92
2023-02-07T11:49:02.592Z,20.05
2023-02-07T11:51:12.952Z,20.75
2023-02-07T11:53:30.293Z,20.33
2023-02-07T11:55:42.563Z,19.40
2023-02-07T11:57:49.450Z,18.20
2023-02-07T12:00:10.929Z,19.92
2023-02-07T12:02:24.626Z,19.75
2023-02-07T12:04:38.038Z,18.38
2023-02-07T12:06:53.750Z,19.23
2023-02-07T12:09:06.520Z,18.58
2023-02-07T12:11:18.830Z,18.02
2023-02-07T12:13:27.256Z,16.92
2023-02-07T12:15:40.634Z,17.25
2023-02-07T12:17:59.019Z,16.33
2023-02-07T12:20:10.636Z,16.52
2023-02-07T12:22:22.388Z,17.02
2023-02-07T12:24:32.992Z,17.70
2023-02-07T12:26:46.692Z,19.70
2023-02-07T12:29:12.841Z,16.15
2023-02-07T12:31:27.509Z,15.88
2023-02-07T12:33:39.245Z,17.10
2023-02-07T12:35:57.475Z,16.45
2023-02-07T12:38:18.712Z,18.50
2023-02-07T12:40:33.811Z,17.25
2023-02-07T12:42:43.547Z,17.30
2023-02-07T12:44:55.612Z,16.02
2023-02-07T12:47:09.846Z,17.13
2023-02-07T12:49:31.257Z,16.95
2023-02-07T12:54:51.020Z,16.95
2023-02-07T12:57:03.798Z,16.30
2023-02-07T12:59:18.485Z,17.40
2023-02-07T13:01:31.291Z,17.75
2023-02-07T13:03:57.020Z,17.73
2023-02-07T13:06:14.353Z,17.67
2023-02-07T13:08:33.782Z,16.55
2023-02-07T13:11:05.139Z,16.20
2023-02-07T13:13:19.298Z,16.90
2023-02-07T13:15:37.161Z,15.90
2023-02-07T13:17:55.669Z,15.10
2023-02-07T13:20:08.387Z,15.68
2023-02-07T13:22:24.508Z,14.70
2023-02-07T13:24:38.421Z,14.25
2023-02-07T13:26:52.246Z,13.27
2023-02-07T13:29:00.091Z,13.50
2023-02-07T13:31:07.813Z,14.48
2023-02-07T13:33:28.935Z,14.00
2023-02-07T13:35:38.552Z,13.45
2023-02-07T13:38:02.396Z,14.43
2023-02-07T13:40:21.167Z,14.38
2023-02-07T13:42:41.213Z,12.23
2023-02-07T13:44:55.522Z,14.70
2023-02-07T13:47:31.713Z,13.30
2023-02-07T13:49:50.686Z,12.68
2023-02-07T13:52:06.673Z,12.30
2023-02-07T13:54:28.645Z,11.90
2023-02-07T13:56:48.086Z,11.75
2023-02-07T13:59:26.223Z,11.30
2023-02-07T14:01:35.107Z,9.50
2023-02-07T14:03:40.821Z,10.45
2023-02-07T14:05:46.742Z,10.30
2023-02-07T14:08:00.036Z,9.73
2023-02-07T14:10:08.753Z,10.18
2023-02-07T14:12:23.098Z,12.40
2023-02-07T14:14:33.405Z,11.73
2023-02-07T14:16:53.888Z,10.02
2023-02-07T14:18:58.887Z,10.07
2023-02-07T14:21:05.149Z,13.30
2023-02-07T14:23:18.804Z,10.88
2023-02-07T14:25:29.036Z,14.13
2023-02-07T14:27:42.215Z,12.85
2023-02-07T14:32:43.103Z,11.32
2023-02-07T14:35:03.866Z,13.32
2023-02-07T14:37:25.123Z,12.50
2023-02-07T14:39:34.423Z,12.38
2023-02-07T14:41:46.965Z,12.07
2023-02-07T14:44:07.917Z,11.85
2023-02-07T14:46:19.471Z,12.43
2023-02-07T14:48:42.746Z,13.45
2023-02-07T14:50:59.198Z,11.40
2023-02-07T14:53:07.208Z,12.98
2023-02-07T14:55:20.859Z,11.93
2023-02-07T14:57:36.493Z,12.90
2023-02-07T14:59:45.570Z,12.60
2023-02-07T15:01:53.822Z,11.85
2023-02-07T15:04:17.182Z,12.82
2023-02-07T15:06:32.151Z,11.70
2023-02-07T15:08:38.658Z,12.70
2023-02-07T15:10:50.768Z,11.98
2023-02-07T15:12:57.097Z,10.80
2023-02-07T15:15:02.453Z,11.68
2023-02-07T15:17:09.049Z,10.65
2023-02-07T15:19:24.677Z,11.18
2023-02-07T15:21:39.973Z,10.50
2023-02-07T15:24:01.259Z,9.30
2023-02-07T15:26:09.834Z,10.80
2023-02-07T15:28:27.378Z,11.07
2023-02-07T15:30:33.582Z,10.45
2023-02-07T15:32:46.690Z,10.82
2023-02-07T15:34:56.175Z,10.18
2023-02-07T15:37:03.618Z,10.85
2023-02-07T15:39:11.683Z,10.85
2023-02-07T15:41:20.097Z,10.48
2023-02-07T15:43:35.077Z,9.98
2023-02-07T15:45:42.189Z,11.00
2023-02-07T15:47:47.710Z,10.55
2023-02-07T15:50:02.563Z,10.52
2023-02-07T15:52:16.539Z,9.85
2023-02-07T15:54:21.859Z,10.38
2023-02-07T15:56:28.447Z,10.70
2023-02-07T15:58:38.101Z,11.48
2023-02-07T16:00:45.811Z,11.82
2023-02-07T16:02:59.739Z,10.15
2023-02-07T16:05:15.971Z,9.93
2023-02-07T16:07:24.765Z,10.93
2023-02-07T16:09:45.668Z,10.90
2023-02-07T16:11:55.805Z,11.00
2023-02-07T16:14:13.651Z,11.35
2023-02-07T16:16:25.153Z,10.52
2023-02-07T16:18:42.910Z,9.98
2023-02-07T16:20:53.417Z,9.52
2023-02-07T16:23:01.024Z,10.38
2023-02-07T16:25:06.979Z,9.75
2023-02-07T16:27:20.527Z,10.20
2023-02-07T16:29:27.889Z,8.60
2023-02-07T16:31:34.914Z,9.02
2023-02-07T16:33:40.087Z,10.02
2023-02-07T16:35:54.083Z,8.75
2023-02-07T16:37:59.117Z,9.32
2023-02-07T16:40:04.208Z,8.77
2023-02-07T16:42:16.704Z,9.65
2023-02-07T16:44:26.587Z,10.07
2023-02-07T16:46:32.319Z,9.32
2023-02-07T16:48:37.291Z,9.70
2023-02-07T16:50:43.162Z,9.10
2023-02-07T16:52:59.899Z,7.80
2023-02-07T16:55:06.540Z,9.95
2023-02-07T16:57:15.958Z,9.55
2023-02-07T16:59:25.783Z,8.70
2023-02-07T17:01:31.253Z,8.20
2023-02-07T17:03:38.385Z,8.40
2023-02-07T17:05:44.194Z,9.43
2023-02-07T17:07:52.377Z,11.43
2023-02-07T17:09:57.609Z,10.63
2023-02-07T17:12:02.820Z,11.05
2023-02-07T17:14:07.731Z,9.38
2023-02-07T17:16:15.555Z,10.82
2023-02-07T17:18:20.788Z,14.15
2023-02-07T17:20:30.673Z,11.57
2023-02-07T17:22:35.643Z,10.30
2023-02-07T17:24:46.577Z,11.10
2023-02-07T17:26:55.460Z,10.23
2023-02-07T17:29:00.875Z,10.57
2023-02-07T17:31:06.814Z,12.20
2023-02-07T17:33:16.592Z,12.27
2023-02-07T17:35:22.208Z,12.18
2023-02-07T17:37:26.905Z,10.68
2023-02-07T17:39:31.629Z,11.80
2023-02-07T17:41:41.361Z,10.30
2023-02-07T17:43:48.341Z,11.57
2023-02-07T17:45:53.130Z,13.18
2023-02-07T17:47:59.687Z,13.95
2023-02-07T17:50:05.020Z,10.88
2023-02-07T17:52:14.462Z,10.63
2023-02-07T17:54:19.232Z,12.40
2023-02-07T17:56:27.542Z,11.43
2023-02-07T17:58:38.072Z,10.10
2023-02-07T18:00:43.633Z,10.88
2023-02-07T18:02:51.602Z,9.82
2023-02-07T18:04:58.444Z,11.55
2023-02-07T18:07:03.308Z,11.27
2023-02-07T18:09:08.305Z,10.23
2023-02-07T18:11:17.511Z,10.88
2023-02-07T18:13:23.165Z,10.88
2023-02-07T18:15:31.387Z,9.90
2023-02-07T18:17:38.383Z,11.57
2023-02-07T18:19:43.664Z,9.95
2023-02-07T18:21:49.395Z,12.60
2023-02-07T18:23:55.406Z,11.48
2023-02-07T18:26:00.911Z,10.80
2023-02-07T18:28:06.269Z,9.75
2023-02-07T18:30:15.013Z,10.02
2023-02-07T18:32:22.603Z,10.23
2023-02-07T18:34:27.611Z,10.40
2023-02-07T18:36:40.298Z,12.60
2023-02-07T18:38:45.883Z,11.48
2023-02-07T18:40:53.664Z,11.82
2023-02-07T18:42:59.329Z,11.77
2023-02-07T18:45:04.158Z,12.27
2023-02-07T18:47:12.050Z,12.48
2023-02-07T18:49:19.432Z,11.63
2023-02-07T18:51:25.261Z,13.07
2023-02-07T18:53:32.444Z,13.50
2023-02-07T18:55:37.368Z,13.82
2023-02-07T18:57:42.399Z,12.60
2023-02-07T18:59:48.498Z,11.57
2023-02-07T19:01:54.505Z,13.43
2023-02-07T19:04:01.887Z,13.02
2023-02-07T19:06:10.690Z,11.05
2023-02-07T19:08:15.576Z,11.27
2023-02-07T19:10:20.549Z,10.40
2023-02-07T19:12:25.298Z,10.52
2023-02-07T19:14:32.123Z,12.32
2023-02-07T19:16:36.888Z,12.93
2023-02-07T19:18:42.436Z,13.27
2023-02-07T19:20:48.180Z,12.07
2023-02-07T19:22:55.706Z,11.20
2023-02-07T19:25:00.533Z,11.35
2023-02-07T19:27:07.243Z,11.05
2023-02-07T19:29:13.065Z,11.93
2023-02-07T19:31:20.430Z,11.85
2023-02-07T19:33:25.866Z,11.30
2023-02-07T19:35:30.807Z,11.75
2023-02-07T19:37:38.070Z,11.20
2023-02-07T19:39:46.996Z,12.13
2023-02-07T19:41:52.128Z,11.10
2023-02-07T19:43:57.404Z,12.38
2023-02-07T19:46:02.505Z,12.15
2023-02-07T19:48:08.167Z,11.25
2023-02-07T19:50:17.097Z,11.10
2023-02-07T19:52:23.331Z,11.63
2023-02-07T19:54:28.302Z,10.23
2023-02-07T19:56:37.719Z,12.38
2023-02-07T19:58:44.510Z,11.77
2023-02-07T20:00:49.532Z,10.95
2023-02-07T20:02:54.480Z,12.80
2023-02-07T20:04:59.697Z,14.45
2023-02-07T20:07:05.034Z,17.05
2023-02-07T20:09:10.491Z,16.77
2023-02-07T20:11:18.308Z,16.02
2023-02-07T20:13:29.461Z,13.65
2023-02-07T20:15:34.777Z,14.02
2023-02-07T20:17:40.523Z,15.50
2023-02-07T20:19:45.586Z,14.75
2023-02-07T20:21:50.873Z,14.05
2023-02-07T20:23:58.080Z,11.77
2023-02-07T20:26:06.853Z,14.73
2023-02-07T20:28:12.124Z,13.77
2023-02-07T20:30:20.258Z,15.60
2023-02-07T20:32:25.290Z,16.88
2023-02-07T20:34:30.147Z,17.60
2023-02-07T20:36:40.941Z,15.77
2023-02-07T20:38:46.095Z,16.08
2023-02-07T20:40:52.546Z,13.57
2023-02-07T20:42:57.618Z,15.18
2023-02-07T20:45:02.756Z,14.95
2023-02-07T20:47:12.407Z,15.85
2023-02-07T20:49:21.000Z,12.80
2023-02-07T20:51:25.914Z,14.13
2023-02-07T20:53:30.725Z,12.43
2023-02-07T20:55:37.161Z,12.32
2023-02-07T20:57:42.108Z,13.52
2023-02-07T20:59:46.946Z,12.35
2023-02-07T21:01:52.208Z,12.90
2023-02-07T21:04:02.475Z,12.07
2023-02-07T21:06:08.207Z,11.93
2023-02-07T21:08:15.318Z,13.13
2023-02-07T21:10:20.556Z,12.18
2023-02-07T21:12:25.525Z,12.77
2023-02-07T21:14:32.690Z,14.23
2023-02-07T21:16:38.044Z,13.07
2023-02-07T21:18:47.763Z,14.25
2023-02-07T21:20:55.605Z,13.68
2023-02-07T21:23:00.455Z,14.35
2023-02-07T21:25:05.407Z,12.98
2023-02-07T21:27:10.443Z,13.00
2023-02-07T21:29:15.541Z,15.20
2023-02-07T21:31:22.871Z,13.50
2023-02-07T21:33:28.096Z,14.25
2023-02-07T21:35:33.241Z,16.45
2023-02-07T21:37:40.885Z,13.50
2023-02-07T21:39:45.919Z,14.32
2023-02-07T21:41:53.419Z,14.95
2023-02-07T21:43:58.925Z,14.85
2023-02-07T21:46:09.154Z,16.75
2023-02-07T21:48:13.920Z,15.95
2023-02-07T21:50:18.817Z,17.50
2023-02-07T21:52:23.917Z,22.30
2023-02-07T21:54:31.424Z,18.60
2023-02-07T21:56:39.999Z,19.25
2023-02-07T21:58:45.994Z,17.05
2023-02-07T22:00:53.933Z,16.73
2023-02-07T22:02:59.009Z,15.50
2023-02-07T22:05:03.940Z,16.40
2023-02-07T22:07:11.932Z,16.17
2023-02-07T22:09:20.688Z,17.65
2023-02-07T22:11:31.507Z,17.02
2023-02-07T22:13:37.804Z,18.05
2023-02-07T22:15:42.709Z,15.48
2023-02-07T22:17:59.009Z,15.43
2023-02-07T22:20:03.928Z,16.40
2023-02-07T22:22:11.859Z,15.82
2023-02-07T22:24:19.650Z,14.93
2023-02-07T22:26:27.666Z,16.08
2023-02-07T22:28:33.268Z,18.55
2023-02-07T22:30:42.711Z,17.35
2023-02-07T22:32:50.826Z,18.38
2023-02-07T22:34:56.846Z,18.17
2023-02-07T22:37:02.204Z,20.55
2023-02-07T22:39:09.337Z,24.40
2023-02-07T22:41:14.221Z,26.48
2023-02-07T22:43:22.646Z,24.13
2023-02-07T22:45:27.702Z,21.20
2023-02-07T22:47:32.687Z,19.50
2023-02-07T22:49:42.387Z,18.58
2023-02-07T22:51:50.651Z,19.95
2023-02-07T22:53:57.853Z,19.65
2023-02-07T22:56:03.880Z,16.63
2023-02-07T22:58:12.316Z,18.63
2023-02-07T23:00:22.448Z,18.88
2023-02-07T23:02:27.330Z,19.83
2023-02-07T23:04:32.412Z,19.35
2023-02-07T23:06:37.408Z,18.20
2023-02-07T23:08:42.325Z,18.90
2023-02-07T23:10:47.100Z,17.95
2023-02-07T23:12:52.273Z,19.80
2023-02-07T23:14:57.582Z,18.80
2023-02-07T23:17:07.394Z,20.65
2023-02-07T23:19:15.971Z,18.48
2023-02-07T23:21:22.490Z,22.92
2023-02-07T23:23:27.515Z,21.38
2023-02-07T23:25:32.820Z,20.80
2023-02-07T23:27:37.758Z,22.83
2023-02-07T23:29:42.913Z,16.83
2023-02-07T23:31:49.372Z,22.13
2023-02-07T23:34:00.092Z,19.80
2023-02-07T23:36:06.275Z,18.77
2023-02-07T23:38:11.149Z,21.77
2023-02-07T23:40:16.077Z,19.63
2023-02-07T23:42:20.872Z,18.98
2023-02-07T23:44:26.688Z,18.30
2023-02-07T23:46:33.105Z,18.40
2023-02-07T23:48:41.181Z,22.10
2023-02-07T23:50:53.934Z,21.80
2023-02-07T23:52:58.967Z,20.15
2023-02-07T23:55:03.918Z,20.13
2023-02-07T23:57:10.162Z,20.73
2023-02-07T23:59:15.520Z,21.85
